createdAt,value
2022-12-19T00:00:50.294Z,102570.34
2022-12-19T00:03:27.584Z,102576.72
2022-12-19T00:05:55.677Z,102570.09
2022-12-19T00:08:23.957Z,102571.69
2022-12-19T00:10:58.099Z,102569.25
2022-12-19T00:13:27.529Z,102569.31
2022-12-19T00:16:04.019Z,102572.19
2022-12-19T00:18:32.398Z,102559.81
2022-12-19T00:21:03.527Z,102563.50
2022-12-19T00:23:35.107Z,102566.59
2022-12-19T00:26:20.569Z,102564.22
2022-12-19T00:28:52.310Z,102563.72
2022-12-19T00:31:22.728Z,102571.22
2022-12-19T00:33:51.268Z,102571.84
2022-12-19T00:36:25.109Z,102569.31
2022-12-19T00:38:55.219Z,102574.50
2022-12-19T00:41:30.697Z,102574.94
2022-12-19T00:44:01.767Z,102581.47
2022-12-19T00:46:34.168Z,102580.97
2022-12-19T00:49:04.129Z,102585.25
2022-12-19T00:51:35.139Z,102587.69
2022-12-19T00:54:05.300Z,102589.19
2022-12-19T00:56:37.396Z,102577.31
2022-12-19T00:59:09.073Z,102578.66
2022-12-19T01:01:40.604Z,102576.56
2022-12-19T01:04:30.721Z,102572.09
2022-12-19T01:07:02.650Z,102569.47
2022-12-19T01:09:36.158Z,102573.94
2022-12-19T01:12:26.013Z,102570.09
2022-12-19T01:15:04.568Z,102568.41
2022-12-19T01:17:37.800Z,102569.66
2022-12-19T01:20:18.190Z,102574.47
2022-12-19T01:22:51.481Z,102575.22
2022-12-19T01:25:21.211Z,102566.59
2022-12-19T01:27:48.985Z,102566.75
2022-12-19T01:30:17.281Z,102576.84
2022-12-19T01:32:46.370Z,102585.72
2022-12-19T01:35:20.682Z,102586.22
2022-12-19T01:38:01.513Z,102579.66
2022-12-19T01:40:37.638Z,102580.91
2022-12-19T01:43:06.866Z,102585.25
2022-12-19T01:45:40.944Z,102592.28
2022-12-19T01:48:26.384Z,102589.25
2022-12-19T01:51:04.493Z,102591.31
2022-12-19T01:53:48.742Z,102602.06
2022-12-19T01:56:22.812Z,102611.53
2022-12-19T01:58:56.149Z,102601.97
2022-12-19T02:01:51.814Z,102604.69
2022-12-19T02:04:28.260Z,102609.16
2022-12-19T02:07:15.595Z,102607.81
2022-12-19T02:09:56.820Z,102609.50
2022-12-19T02:12:36.941Z,102606.44
2022-12-19T02:15:06.413Z,102599.16
2022-12-19T02:17:38.065Z,102601.97
2022-12-19T02:20:22.463Z,102594.41
2022-12-19T02:23:09.604Z,102594.28
2022-12-19T02:26:10.446Z,102585.22
2022-12-19T02:28:59.418Z,102577.75
2022-12-19T02:31:32.702Z,102574.06
2022-12-19T02:34:23.142Z,102567.22
2022-12-19T02:37:08.013Z,102568.97
2022-12-19T02:39:58.757Z,102559.00
2022-12-19T02:42:32.090Z,102559.00
2022-12-19T02:45:08.269Z,102570.59
2022-12-19T02:47:38.736Z,102578.53
2022-12-19T02:50:08.839Z,102571.66
2022-12-19T02:52:36.796Z,102575.75
2022-12-19T02:55:16.315Z,102565.03
2022-12-19T02:58:16.295Z,102563.69
2022-12-19T03:01:01.579Z,102573.31
2022-12-19T03:03:55.688Z,102571.59
2022-12-19T03:06:43.949Z,102574.03
2022-12-19T03:09:27.619Z,102579.72
2022-12-19T03:12:05.862Z,102567.34
2022-12-19T03:14:36.291Z,102574.84
2022-12-19T03:17:08.350Z,102566.16
2022-12-19T03:19:40.505Z,102564.25
2022-12-19T03:22:08.862Z,102564.72
2022-12-19T03:24:36.915Z,102571.44
2022-12-19T03:27:20.888Z,102582.38
2022-12-19T03:30:03.777Z,102574.22
2022-12-19T03:32:34.877Z,102567.50
2022-12-19T03:35:16.262Z,102568.59
2022-12-19T03:37:46.761Z,102560.28
2022-12-19T03:40:26.442Z,102553.19
2022-12-19T03:43:11.260Z,102556.94
2022-12-19T03:46:11.697Z,102552.50
2022-12-19T03:48:42.443Z,102563.09
2022-12-19T03:51:13.469Z,102554.34
2022-12-19T03:54:01.069Z,102564.91
2022-12-19T03:56:50.454Z,102560.28
2022-12-19T03:59:50.021Z,102556.22
2022-12-19T04:02:21.977Z,102552.13
2022-12-19T04:05:02.546Z,102551.34
2022-12-19T04:07:31.193Z,102552.44
2022-12-19T04:10:02.980Z,102551.16
2022-12-19T04:12:38.872Z,102561.81
2022-12-19T04:15:09.469Z,102561.66
2022-12-19T04:17:46.983Z,102568.94
2022-12-19T04:20:19.034Z,102567.94
2022-12-19T04:22:56.093Z,102568.94
2022-12-19T04:25:35.163Z,102562.66
2022-12-19T04:28:10.188Z,102563.50
2022-12-19T04:30:43.465Z,102567.38
2022-12-19T04:33:11.433Z,102572.41
2022-12-19T04:35:39.882Z,102561.72
2022-12-19T04:38:08.502Z,102547.09
2022-12-19T04:40:41.257Z,102555.13
2022-12-19T04:43:09.880Z,102562.53
2022-12-19T04:45:38.250Z,102562.00
2022-12-19T04:48:08.038Z,102560.38
2022-12-19T04:50:37.620Z,102559.38
2022-12-19T04:53:05.927Z,102558.06
2022-12-19T04:55:34.180Z,102553.97
2022-12-19T04:58:02.182Z,102554.16
2022-12-19T05:00:30.378Z,102552.34
2022-12-19T05:02:58.395Z,102553.28
2022-12-19T05:05:27.009Z,102551.09
2022-12-19T05:07:56.160Z,102561.38
2022-12-19T05:10:24.405Z,102564.03
2022-12-19T05:12:54.372Z,102567.41
2022-12-19T05:15:22.552Z,102578.44
2022-12-19T05:17:50.438Z,102568.31
2022-12-19T05:20:19.852Z,102567.91
2022-12-19T05:22:47.803Z,102575.06
2022-12-19T05:25:16.094Z,102560.69
2022-12-19T05:27:44.115Z,102545.44
2022-12-19T05:30:13.748Z,102539.59
2022-12-19T05:32:41.589Z,102525.41
2022-12-19T05:35:10.777Z,102533.22
2022-12-19T05:37:38.702Z,102541.44
2022-12-19T05:40:08.762Z,102535.88
2022-12-19T05:42:36.688Z,102548.13
2022-12-19T05:45:05.930Z,102566.22
2022-12-19T05:47:33.920Z,102563.16
2022-12-19T05:50:02.274Z,102557.94
2022-12-19T05:52:30.696Z,102560.69
2022-12-19T05:54:58.921Z,102564.78
2022-12-19T05:57:26.926Z,102569.38
2022-12-19T05:59:55.100Z,102573.41
2022-12-19T06:02:23.265Z,102573.03
2022-12-19T06:04:51.869Z,102582.16
2022-12-19T06:07:21.256Z,102571.75
2022-12-19T06:09:49.812Z,102569.28
2022-12-19T06:12:17.759Z,102576.16
2022-12-19T06:14:45.946Z,102580.47
2022-12-19T06:17:13.849Z,102592.66
2022-12-19T06:19:42.068Z,102589.78
2022-12-19T06:22:10.045Z,102586.91
2022-12-19T06:24:40.998Z,102592.44
2022-12-19T06:27:09.728Z,102593.91
2022-12-19T06:29:38.068Z,102588.50
2022-12-19T06:32:06.226Z,102585.59
2022-12-19T06:35:03.202Z,102582.38
2022-12-19T06:37:26.055Z,102584.19
2022-12-19T06:39:54.279Z,102583.81
2022-12-19T06:42:24.912Z,102587.41
2022-12-19T06:44:56.203Z,102573.06
2022-12-19T06:47:25.427Z,102579.78
2022-12-19T06:49:54.683Z,102569.19
2022-12-19T06:52:22.600Z,102572.38
2022-12-19T06:54:51.915Z,102577.13
2022-12-19T06:57:19.915Z,102574.72
2022-12-19T06:59:48.111Z,102587.97
2022-12-19T07:02:28.603Z,102603.22
2022-12-19T07:05:03.342Z,102598.34
2022-12-19T07:07:31.361Z,102600.06
2022-12-19T07:09:59.731Z,102594.88
2022-12-19T07:12:28.472Z,102599.63
2022-12-19T07:14:57.691Z,102610.78
2022-12-19T07:17:26.317Z,102610.66
2022-12-19T07:19:56.500Z,102602.97
2022-12-19T07:22:27.184Z,102602.41
2022-12-19T07:24:57.074Z,102599.09
2022-12-19T07:27:28.505Z,102598.97
2022-12-19T07:30:00.101Z,102596.19
2022-12-19T07:32:28.063Z,102593.09
2022-12-19T07:34:56.344Z,102604.47
2022-12-19T07:37:24.265Z,102600.22
2022-12-19T07:39:53.484Z,102593.50
2022-12-19T07:42:21.563Z,102590.78
2022-12-19T07:44:52.143Z,102587.47
2022-12-19T07:47:20.005Z,102584.75
2022-12-19T07:49:48.166Z,102591.16
2022-12-19T07:52:15.982Z,102606.19
2022-12-19T07:54:44.128Z,102597.41
2022-12-19T07:57:12.606Z,102601.34
2022-12-19T07:59:42.684Z,102598.72
2022-12-19T08:02:11.549Z,102597.91
2022-12-19T08:04:40.094Z,102597.69
2022-12-19T08:07:07.948Z,102603.78
2022-12-19T08:09:37.432Z,102604.78
2022-12-19T08:12:06.179Z,102594.84
2022-12-19T08:14:34.441Z,102612.94
2022-12-19T08:19:50.988Z,102615.84
2022-12-19T08:22:19.186Z,102610.63
2022-12-19T08:24:47.296Z,102610.69
2022-12-19T08:27:17.857Z,102608.25
2022-12-19T08:29:46.207Z,102612.75
2022-12-19T08:32:20.526Z,102617.75
2022-12-19T08:34:50.750Z,102608.13
2022-12-19T08:37:18.628Z,102617.28
2022-12-19T08:39:46.827Z,102608.75
2022-12-19T08:42:14.922Z,102594.47
2022-12-19T08:44:43.317Z,102603.53
2022-12-19T08:47:11.328Z,102593.28
2022-12-19T08:49:39.692Z,102600.78
2022-12-19T08:52:07.680Z,102597.00
2022-12-19T08:54:36.115Z,102599.16
2022-12-19T08:57:04.517Z,102596.22
2022-12-19T08:59:32.757Z,102596.31
2022-12-19T09:02:01.597Z,102590.69
2022-12-19T09:05:56.703Z,102591.75
2022-12-19T09:07:18.264Z,102594.53
2022-12-19T09:09:46.581Z,102607.91
2022-12-19T09:12:16.542Z,102608.88
2022-12-19T09:14:45.126Z,102605.53
2022-12-19T09:17:13.486Z,102615.28
2022-12-19T09:19:47.099Z,102614.00
2022-12-19T09:22:17.169Z,102606.72
2022-12-19T09:24:46.110Z,102613.66
2022-12-19T09:27:14.229Z,102611.78
2022-12-19T09:29:43.995Z,102608.41
2022-12-19T09:32:11.878Z,102601.03
2022-12-19T09:34:40.181Z,102614.69
2022-12-19T09:37:16.226Z,102621.38
2022-12-19T09:39:47.481Z,102619.09
2022-12-19T09:42:24.560Z,102610.00
2022-12-19T09:45:14.455Z,102616.22
2022-12-19T09:47:49.201Z,102606.19
2022-12-19T09:50:33.833Z,102614.31
2022-12-19T09:53:08.443Z,102610.47
2022-12-19T09:55:41.407Z,102615.59
2022-12-19T09:58:24.953Z,102599.16
2022-12-19T10:01:00.655Z,102604.44
2022-12-19T10:03:40.918Z,102604.25
2022-12-19T10:07:11.921Z,102602.34
2022-12-19T10:10:11.069Z,102596.00
2022-12-19T10:12:38.707Z,102594.84
2022-12-19T10:15:09.695Z,102598.97
2022-12-19T10:18:02.438Z,102602.41
2022-12-19T10:20:35.845Z,102599.94
2022-12-19T10:23:16.798Z,102605.25
2022-12-19T10:25:47.286Z,102597.50
2022-12-19T10:28:30.490Z,102605.50
2022-12-19T10:31:19.056Z,102598.50
2022-12-19T10:34:19.647Z,102595.19
2022-12-19T10:40:11.716Z,102584.97
2022-12-19T10:43:11.517Z,102581.00
2022-12-19T10:45:52.894Z,102579.22
2022-12-19T10:48:30.599Z,102572.06
2022-12-19T10:51:05.197Z,102572.81
2022-12-19T10:53:35.145Z,102566.75
2022-12-19T10:56:14.368Z,102564.47
2022-12-19T10:58:44.627Z,102570.03
2022-12-19T11:01:25.618Z,102565.34
2022-12-19T11:04:18.324Z,102560.03
2022-12-19T11:07:01.237Z,102560.94
2022-12-19T11:09:30.844Z,102553.59
2022-12-19T11:17:07.695Z,102555.75
2022-12-19T11:17:47.548Z,102563.50
2022-12-19T11:27:05.081Z,102553.47
2022-12-19T11:29:37.883Z,102544.31
2022-12-19T11:29:44.852Z,102537.38
2022-12-19T11:30:09.512Z,102531.47
2022-12-19T11:32:44.914Z,102525.59
2022-12-19T11:35:36.737Z,102515.31
2022-12-19T11:38:09.407Z,102523.09
2022-12-19T11:40:49.177Z,102515.22
2022-12-19T11:43:49.656Z,102513.06
2022-12-19T11:46:27.216Z,102503.28
2022-12-19T11:49:31.529Z,102509.50
2022-12-19T11:55:53.577Z,102507.25
2022-12-19T11:58:25.550Z,102501.75
2022-12-19T12:01:26.614Z,102494.72
2022-12-19T12:04:13.477Z,102492.28
2022-12-19T12:06:50.533Z,102496.38
2022-12-19T12:13:08.298Z,102486.72
2022-12-19T12:20:07.780Z,102487.69
2022-12-19T12:27:24.939Z,102487.25
2022-12-19T12:31:01.112Z,102481.84
2022-12-19T12:31:10.259Z,102475.41
2022-12-19T12:31:54.269Z,102458.44
2022-12-19T12:31:58.264Z,102463.06
2022-12-19T12:35:33.627Z,102464.69
2022-12-19T12:37:51.620Z,102463.16
2022-12-19T12:38:23.950Z,102470.75
2022-12-19T12:41:13.319Z,102462.50
2022-12-19T12:44:07.406Z,102459.81
2022-12-19T12:46:44.840Z,102452.25
2022-12-19T12:49:22.795Z,102453.63
2022-12-19T12:51:52.218Z,102452.25
2022-12-19T12:54:21.809Z,102456.22
2022-12-19T12:56:50.324Z,102457.81
2022-12-19T12:59:20.851Z,102445.09
2022-12-19T13:01:59.871Z,102445.19
2022-12-19T13:04:36.879Z,102443.00
2022-12-19T13:07:16.195Z,102449.28
2022-12-19T13:09:44.351Z,102448.91
2022-12-19T13:12:44.991Z,102446.66
2022-12-19T13:15:27.894Z,102448.69
2022-12-19T13:17:56.188Z,102446.78
2022-12-19T13:20:24.058Z,102443.06
2022-12-19T13:23:19.129Z,102436.72
2022-12-19T13:25:50.459Z,102441.78
2022-12-19T13:28:22.709Z,102438.09
2022-12-19T13:31:18.764Z,102436.31
2022-12-19T13:33:56.203Z,102430.81
2022-12-19T13:39:50.859Z,102434.44
2022-12-19T13:40:08.845Z,102434.94
2022-12-19T13:43:07.483Z,102435.63
2022-12-19T13:45:48.302Z,102433.78
2022-12-19T13:48:28.251Z,102437.03
2022-12-19T13:51:03.745Z,102443.88
2022-12-19T13:53:32.162Z,102432.59
2022-12-19T13:56:04.090Z,102435.72
2022-12-19T13:58:42.999Z,102447.03
2022-12-19T14:01:21.528Z,102436.25
2022-12-19T14:03:53.803Z,102430.13
2022-12-19T14:06:25.976Z,102430.66
2022-12-19T14:11:25.749Z,102430.56
2022-12-19T14:13:44.343Z,102427.34
2022-12-19T14:15:12.866Z,102431.66
2022-12-19T14:17:51.329Z,102445.47
2022-12-19T14:22:07.277Z,102442.28
2022-12-19T14:23:12.166Z,102434.00
2022-12-19T14:28:17.529Z,102433.50
2022-12-19T14:28:54.702Z,102429.53
2022-12-19T14:31:25.220Z,102427.81
2022-12-19T14:34:18.963Z,102422.00
2022-12-19T14:36:53.997Z,102436.59
2022-12-19T14:39:31.856Z,102427.94
2022-12-19T14:43:56.904Z,102440.03
2022-12-19T14:54:02.327Z,102432.75
2022-12-19T14:54:13.813Z,102435.41
2022-12-19T14:54:40.851Z,102433.91
2022-12-19T14:57:25.509Z,102432.22
2022-12-19T15:01:08.493Z,102432.00
2022-12-19T15:03:25.678Z,102434.06
2022-12-19T15:07:05.232Z,102439.59
2022-12-19T15:11:08.136Z,102433.59
2022-12-19T15:14:49.588Z,102427.16
2022-12-19T15:15:37.753Z,102441.09
2022-12-19T15:18:24.066Z,102434.81
2022-12-19T15:20:54.190Z,102431.69
2022-12-19T15:23:24.532Z,102433.09
2022-12-19T15:26:09.187Z,102434.28
2022-12-19T15:28:39.238Z,102442.28
2022-12-19T15:31:28.712Z,102437.72
2022-12-19T15:34:32.823Z,102437.88
2022-12-19T15:36:45.804Z,102440.53
2022-12-19T15:39:15.281Z,102434.94
2022-12-19T15:41:45.267Z,102440.56
2022-12-19T15:44:41.513Z,102440.66
2022-12-19T15:47:35.088Z,102439.41
2022-12-19T15:50:14.874Z,102427.50
2022-12-19T15:52:43.264Z,102431.38
2022-12-19T15:55:16.829Z,102428.03
2022-12-19T15:57:49.360Z,102421.78
2022-12-19T16:00:23.477Z,102414.22
2022-12-19T16:05:43.273Z,102425.66
2022-12-19T16:08:20.645Z,102428.41
2022-12-19T16:11:01.491Z,102422.25
2022-12-19T16:13:36.103Z,102429.25
2022-12-19T16:16:11.214Z,102422.03
2022-12-19T16:18:45.604Z,102425.22
2022-12-19T16:21:27.451Z,102430.34
2022-12-19T16:23:58.749Z,102433.91
2022-12-19T16:26:33.803Z,102434.72
2022-12-19T16:29:02.872Z,102432.09
2022-12-19T16:31:31.034Z,102431.66
2022-12-19T16:34:03.550Z,102430.97
2022-12-19T16:36:31.940Z,102423.63
2022-12-19T16:39:00.212Z,102422.25
2022-12-19T16:41:28.641Z,102423.06
2022-12-19T16:43:57.781Z,102415.34
2022-12-19T16:46:31.322Z,102427.28
2022-12-19T16:48:59.947Z,102425.56
2022-12-19T16:51:28.619Z,102426.25
2022-12-19T16:54:01.318Z,102426.81
2022-12-19T16:56:42.769Z,102419.00
2022-12-19T16:59:43.260Z,102429.13
2022-12-19T17:03:02.818Z,102429.84
2022-12-19T17:05:32.621Z,102420.31
2022-12-19T17:08:01.328Z,102423.97
2022-12-19T17:10:33.102Z,102433.81
2022-12-19T17:13:04.040Z,102418.94
2022-12-19T17:15:36.902Z,102421.56
2022-12-19T17:18:17.620Z,102421.22
2022-12-19T17:20:46.611Z,102409.66
2022-12-19T17:23:21.395Z,102420.94
2022-12-19T17:25:50.552Z,102428.59
2022-12-19T17:28:18.789Z,102431.66
2022-12-19T17:30:57.603Z,102431.84
2022-12-19T17:33:33.598Z,102433.19
2022-12-19T17:36:04.201Z,102437.78
2022-12-19T17:38:32.440Z,102437.75
2022-12-19T17:41:01.791Z,102430.13
2022-12-19T17:43:30.150Z,102430.72
2022-12-19T17:45:58.930Z,102431.13
2022-12-19T17:48:32.156Z,102444.19
2022-12-19T17:51:00.794Z,102445.22
2022-12-19T17:53:28.786Z,102436.34
2022-12-19T17:55:57.209Z,102438.88
2022-12-19T17:58:25.670Z,102439.09
2022-12-19T18:00:53.978Z,102435.84
2022-12-19T18:03:26.952Z,102428.19
2022-12-19T18:05:56.396Z,102429.09
2022-12-19T18:08:28.631Z,102433.69
2022-12-19T18:10:59.877Z,102431.69
2022-12-19T18:13:30.091Z,102426.34
2022-12-19T18:16:03.557Z,102420.13
2022-12-19T18:18:35.845Z,102428.34
2022-12-19T18:21:06.083Z,102426.22
2022-12-19T18:23:34.282Z,102429.72
2022-12-19T18:26:03.072Z,102415.91
2022-12-19T18:28:31.072Z,102437.66
2022-12-19T18:31:03.329Z,102432.16
2022-12-19T18:33:38.933Z,102427.78
2022-12-19T18:36:18.508Z,102429.09
2022-12-19T18:38:48.873Z,102439.00
2022-12-19T18:41:19.755Z,102436.53
2022-12-19T18:43:49.038Z,102428.34
2022-12-19T18:46:28.006Z,102433.44
2022-12-19T18:48:56.036Z,102436.19
2022-12-19T18:51:24.419Z,102430.56
2022-12-19T18:53:52.488Z,102426.09
2022-12-19T18:56:20.758Z,102430.28
2022-12-19T18:58:48.879Z,102421.22
2022-12-19T19:01:20.692Z,102414.00
2022-12-19T19:03:59.560Z,102421.53
2022-12-19T19:06:34.386Z,102416.47
2022-12-19T19:09:15.138Z,102420.03
2022-12-19T19:11:49.395Z,102415.84
2022-12-19T19:14:17.379Z,102415.47
2022-12-19T19:16:45.697Z,102420.50
2022-12-19T19:19:18.646Z,102422.81
2022-12-19T19:21:47.038Z,102422.47
2022-12-19T19:24:21.167Z,102416.66
2022-12-19T19:26:49.909Z,102411.13
2022-12-19T19:29:19.969Z,102412.28
2022-12-19T19:31:51.532Z,102419.94
2022-12-19T19:34:29.937Z,102414.38
2022-12-19T19:37:03.915Z,102412.66
2022-12-19T19:39:34.935Z,102409.84
2022-12-19T19:42:03.228Z,102406.44
2022-12-19T19:44:32.424Z,102397.41
2022-12-19T19:47:00.742Z,102413.03
2022-12-19T19:49:28.730Z,102401.97
2022-12-19T19:52:02.231Z,102403.41
2022-12-19T19:54:32.041Z,102392.44
2022-12-19T19:57:01.350Z,102405.31
2022-12-19T19:59:31.762Z,102400.44
2022-12-19T20:02:00.453Z,102391.81
2022-12-19T20:04:28.703Z,102396.84
2022-12-19T20:06:57.090Z,102390.44
2022-12-19T20:09:25.909Z,102390.81
2022-12-19T20:11:54.241Z,102400.69
2022-12-19T20:14:22.580Z,102390.03
2022-12-19T20:16:51.748Z,102389.25
2022-12-19T20:19:19.789Z,102384.81
2022-12-19T20:21:48.269Z,102389.16
2022-12-19T20:24:17.011Z,102386.53
2022-12-19T20:26:46.168Z,102382.34
2022-12-19T20:29:15.018Z,102382.78
2022-12-19T20:31:45.086Z,102386.06
2022-12-19T20:34:14.107Z,102382.63
2022-12-19T20:36:44.439Z,102380.59
2022-12-19T20:39:15.846Z,102386.47
2022-12-19T20:41:46.559Z,102378.06
2022-12-19T20:44:23.608Z,102387.56
2022-12-19T20:46:53.957Z,102387.47
2022-12-19T20:49:24.477Z,102380.69
2022-12-19T20:51:53.788Z,102379.19
2022-12-19T20:54:25.947Z,102380.94
2022-12-19T20:56:56.409Z,102376.03
2022-12-19T20:59:24.818Z,102369.28
2022-12-19T21:01:55.775Z,102374.47
2022-12-19T21:04:24.959Z,102369.81
2022-12-19T21:06:54.079Z,102360.94
2022-12-19T21:09:22.326Z,102367.59
2022-12-19T21:11:50.446Z,102358.00
2022-12-19T21:14:18.357Z,102364.03
2022-12-19T21:16:47.181Z,102370.97
2022-12-19T21:19:18.424Z,102366.78
2022-12-19T21:21:47.344Z,102370.06
2022-12-19T21:24:15.117Z,102365.72
2022-12-19T21:26:43.410Z,102359.69
2022-12-19T21:29:12.315Z,102356.97
2022-12-19T21:31:40.610Z,102358.31
2022-12-19T21:34:09.587Z,102369.72
2022-12-19T21:36:38.797Z,102366.47
2022-12-19T21:39:06.740Z,102369.22
2022-12-19T21:41:34.811Z,102363.81
2022-12-19T21:44:02.658Z,102369.50
2022-12-19T21:46:36.056Z,102367.50
2022-12-19T21:49:04.272Z,102363.72
2022-12-19T21:51:32.788Z,102362.63
2022-12-19T21:54:02.848Z,102364.41
2022-12-19T21:56:41.182Z,102371.66
2022-12-19T21:59:17.432Z,102359.47
2022-12-19T22:01:46.190Z,102366.78
2022-12-19T22:04:17.991Z,102363.34
2022-12-19T22:06:46.746Z,102361.75
2022-12-19T22:09:18.136Z,102355.22
2022-12-19T22:11:46.625Z,102356.50
2022-12-19T22:14:17.638Z,102356.47
2022-12-19T22:16:45.827Z,102359.53
2022-12-19T22:19:16.591Z,102354.44
2022-12-19T22:21:45.925Z,102350.06
2022-12-19T22:24:16.377Z,102357.91
2022-12-19T22:26:45.887Z,102359.66
2022-12-19T22:29:16.608Z,102349.59
2022-12-19T22:31:45.042Z,102346.47
2022-12-19T22:34:21.118Z,102339.31
2022-12-19T22:36:49.557Z,102337.50
2022-12-19T22:39:20.089Z,102342.81
2022-12-19T22:41:48.489Z,102336.72
2022-12-19T22:44:24.312Z,102337.41
2022-12-19T22:46:52.837Z,102334.97
2022-12-19T22:49:20.868Z,102342.53
2022-12-19T22:51:50.183Z,102345.06
2022-12-19T22:54:18.023Z,102333.66
2022-12-19T22:56:46.156Z,102332.84
2022-12-19T22:59:13.997Z,102332.25
2022-12-19T23:01:43.950Z,102338.31
2022-12-19T23:04:14.596Z,102330.56
2022-12-19T23:06:43.834Z,102328.50
2022-12-19T23:09:17.196Z,102337.13
2022-12-19T23:11:49.912Z,102326.31
2022-12-19T23:14:19.897Z,102332.63
2022-12-19T23:16:48.769Z,102326.78
2022-12-19T23:19:17.586Z,102329.16
2022-12-19T23:21:45.906Z,102327.50
2022-12-19T23:24:13.831Z,102331.75
2022-12-19T23:26:43.046Z,102322.28
2022-12-19T23:29:15.850Z,102329.22
2022-12-19T23:31:46.352Z,102326.16
2022-12-19T23:34:16.375Z,102314.69
2022-12-19T23:37:10.077Z,102321.16
2022-12-19T23:39:33.195Z,102321.16
2022-12-19T23:42:01.972Z,102315.16
2022-12-19T23:44:30.044Z,102321.16
2022-12-19T23:47:03.041Z,102303.75
2022-12-19T23:49:34.431Z,102318.31
2022-12-19T23:52:02.627Z,102323.88
2022-12-19T23:54:30.774Z,102319.81
2022-12-19T23:56:58.885Z,102314.16
2022-12-19T23:59:26.759Z,102317.50
